createdAt,value
2018-07-09T00:00:07.704Z,3.53
2018-07-09T00:00:20.173Z,3.53
2018-07-09T00:00:32.586Z,3.53
2018-07-09T00:00:44.990Z,3.53
2018-07-09T00:00:57.448Z,3.53
2018-07-09T00:01:09.870Z,3.53
2018-07-09T00:01:22.444Z,3.53
2018-07-09T00:01:35.017Z,3.53
2018-07-09T00:01:47.438Z,3.35
2018-07-09T00:01:59.874Z,3.35
2018-07-09T00:02:12.284Z,3.35
2018-07-09T00:02:24.694Z,3.35
2018-07-09T00:02:37.100Z,3.35
2018-07-09T00:02:49.501Z,3.35
2018-07-09T00:03:01.916Z,3.35
2018-07-09T00:03:14.323Z,3.35
2018-07-09T00:03:26.761Z,3.35
2018-07-09T00:03:39.162Z,3.35
2018-07-09T00:03:51.545Z,3.35
2018-07-09T00:04:03.968Z,3.35
2018-07-09T00:04:16.382Z,3.35
2018-07-09T00:04:28.870Z,3.35
2018-07-09T00:04:41.285Z,3.35
2018-07-09T00:04:53.686Z,3.35
2018-07-09T00:05:06.090Z,3.35
2018-07-09T00:05:18.493Z,3.35
2018-07-09T00:05:30.886Z,3.35
2018-07-09T00:05:43.279Z,3.35
2018-07-09T00:05:55.685Z,3.35
2018-07-09T00:06:08.117Z,3.35
2018-07-09T00:06:21.200Z,3.35
2018-07-09T00:06:33.762Z,3.35
2018-07-09T00:06:46.176Z,3.35
2018-07-09T00:06:58.582Z,3.35
2018-07-09T00:07:10.996Z,3.35
2018-07-09T00:07:23.405Z,3.35
2018-07-09T00:07:35.807Z,3.35
2018-07-09T00:07:48.213Z,3.35
2018-07-09T00:08:00.615Z,3.35
2018-07-09T00:08:13.008Z,3.35
2018-07-09T00:08:25.410Z,3.35
2018-07-09T00:08:37.819Z,3.35
2018-07-09T00:08:50.225Z,3.35
2018-07-09T00:09:02.625Z,3.35
2018-07-09T00:09:15.030Z,3.35
2018-07-09T00:09:27.439Z,3.35
2018-07-09T00:09:39.899Z,3.35
2018-07-09T00:09:52.301Z,3.35
2018-07-09T00:10:04.697Z,3.35
2018-07-09T00:10:17.104Z,3.35
2018-07-09T00:10:29.506Z,3.35
2018-07-09T00:10:41.910Z,3.35
2018-07-09T00:10:54.326Z,3.35
2018-07-09T00:11:06.738Z,3.35
2018-07-09T00:11:19.134Z,3.35
2018-07-09T00:11:31.588Z,3.35
2018-07-09T00:11:43.990Z,3.9
2018-07-09T00:11:56.388Z,3.9
2018-07-09T00:12:08.793Z,3.9
2018-07-09T00:12:21.194Z,3.9
2018-07-09T00:12:33.628Z,3.9
2018-07-09T00:12:46.022Z,3.9
2018-07-09T00:12:58.427Z,3.9
2018-07-09T00:13:10.823Z,3.9
2018-07-09T00:13:23.242Z,3.9
2018-07-09T00:13:35.646Z,3.9
2018-07-09T00:13:48.126Z,3.9
2018-07-09T00:14:00.527Z,3.9
2018-07-09T00:14:12.954Z,3.9
2018-07-09T00:14:25.424Z,3.9
2018-07-09T00:14:37.817Z,3.9
2018-07-09T00:14:50.221Z,3.9
2018-07-09T00:15:02.637Z,3.9
2018-07-09T00:15:15.050Z,3.9
2018-07-09T00:15:27.470Z,3.9
2018-07-09T00:15:39.867Z,3.9
2018-07-09T00:15:52.262Z,3.9
2018-07-09T00:16:04.667Z,3.9
2018-07-09T00:16:17.165Z,3.9
2018-07-09T00:16:29.561Z,3.9
2018-07-09T00:16:42.106Z,3.9
2018-07-09T00:16:54.584Z,3.9
2018-07-09T00:17:06.993Z,3.9
2018-07-09T00:17:19.419Z,3.9
2018-07-09T00:17:31.820Z,3.9
2018-07-09T00:17:44.254Z,3.9
2018-07-09T00:17:56.658Z,3.9
2018-07-09T00:18:09.065Z,3.9
2018-07-09T00:18:21.470Z,3.9
2018-07-09T00:18:33.886Z,3.9
2018-07-09T00:18:46.283Z,3.9
2018-07-09T00:18:58.690Z,3.9
2018-07-09T00:19:11.087Z,3.9
2018-07-09T00:19:23.535Z,3.9
2018-07-09T00:19:35.929Z,3.9
2018-07-09T00:19:48.344Z,3.9
2018-07-09T00:20:00.793Z,3.9
2018-07-09T00:20:13.207Z,3.9
2018-07-09T00:20:25.611Z,3.9
2018-07-09T00:20:38.016Z,3.9
2018-07-09T00:20:50.430Z,3.9
2018-07-09T00:21:02.839Z,3.9
2018-07-09T00:21:15.270Z,3.9
2018-07-09T00:21:27.666Z,3.9
2018-07-09T00:21:40.063Z,3.9
2018-07-09T00:21:52.442Z,3.62
2018-07-09T00:22:04.914Z,3.62
2018-07-09T00:22:17.324Z,3.62
2018-07-09T00:22:29.722Z,3.62
2018-07-09T00:22:42.132Z,3.62
2018-07-09T00:22:54.538Z,3.62
2018-07-09T00:23:06.935Z,3.62
2018-07-09T00:23:19.338Z,3.62
2018-07-09T00:23:31.755Z,3.62
2018-07-09T00:23:44.155Z,3.62
2018-07-09T00:23:56.564Z,3.62
2018-07-09T00:24:08.966Z,3.62
2018-07-09T00:24:21.366Z,3.62
2018-07-09T00:24:33.764Z,3.62
2018-07-09T00:24:46.175Z,3.62
2018-07-09T00:24:58.571Z,3.62
2018-07-09T00:25:10.987Z,3.62
2018-07-09T00:25:23.429Z,3.62
2018-07-09T00:25:35.825Z,3.62
2018-07-09T00:25:48.223Z,3.62
2018-07-09T00:26:00.643Z,3.62
2018-07-09T00:26:13.042Z,3.62
2018-07-09T00:26:25.546Z,3.62
2018-07-09T00:26:37.942Z,3.62
2018-07-09T00:26:50.343Z,3.62
2018-07-09T00:27:02.747Z,3.62
2018-07-09T00:27:15.190Z,3.62
2018-07-09T00:27:27.580Z,3.62
2018-07-09T00:27:39.978Z,3.62
2018-07-09T00:27:52.386Z,3.62
2018-07-09T00:28:04.807Z,3.62
2018-07-09T00:28:17.205Z,3.62
2018-07-09T00:28:29.627Z,3.62
2018-07-09T00:28:42.039Z,3.62
2018-07-09T00:28:54.438Z,3.62
2018-07-09T00:29:06.837Z,3.62
2018-07-09T00:29:19.248Z,3.62
2018-07-09T00:29:31.646Z,3.62
2018-07-09T00:29:44.061Z,3.62
2018-07-09T00:29:56.504Z,3.62
2018-07-09T00:30:08.901Z,3.62
2018-07-09T00:30:21.339Z,3.62
2018-07-09T00:30:33.736Z,3.62
2018-07-09T00:30:46.166Z,3.62
2018-07-09T00:30:58.606Z,3.62
2018-07-09T00:31:10.999Z,3.62
2018-07-09T00:31:23.391Z,3.62
2018-07-09T00:31:35.862Z,3.62
2018-07-09T00:31:48.286Z,4.16
2018-07-09T00:32:00.681Z,4.16
2018-07-09T00:32:13.190Z,4.16
2018-07-09T00:32:26.362Z,4.16
2018-07-09T00:32:38.771Z,4.16
2018-07-09T00:32:51.200Z,4.16
2018-07-09T00:33:03.608Z,4.16
2018-07-09T00:33:16.026Z,4.16
2018-07-09T00:33:28.434Z,4.16
2018-07-09T00:33:40.837Z,4.16
2018-07-09T00:33:53.242Z,4.16
2018-07-09T00:34:05.656Z,4.16
2018-07-09T00:34:18.069Z,4.16
2018-07-09T00:34:30.480Z,4.16
2018-07-09T00:34:42.933Z,4.16
2018-07-09T00:34:55.338Z,4.16
2018-07-09T00:35:07.734Z,4.16
2018-07-09T00:35:20.142Z,4.16
2018-07-09T00:35:32.528Z,4.16
2018-07-09T00:35:44.950Z,4.16
2018-07-09T00:35:57.368Z,4.16
2018-07-09T00:36:09.764Z,4.16
2018-07-09T00:36:22.165Z,4.16
2018-07-09T00:36:34.655Z,4.16
2018-07-09T00:36:47.065Z,4.16
2018-07-09T00:36:59.466Z,4.16
2018-07-09T00:37:11.868Z,4.16
2018-07-09T00:37:24.260Z,4.16
2018-07-09T00:37:36.649Z,4.16
2018-07-09T00:37:49.176Z,4.16
2018-07-09T00:38:01.571Z,4.16
2018-07-09T00:38:13.958Z,4.16
2018-07-09T00:38:26.351Z,4.16
2018-07-09T00:38:38.756Z,4.16
2018-07-09T00:38:51.155Z,4.16
2018-07-09T00:39:03.548Z,4.16
2018-07-09T00:39:16.008Z,4.16
2018-07-09T00:39:28.414Z,4.16
2018-07-09T00:39:40.840Z,4.16
2018-07-09T00:39:53.237Z,4.16
2018-07-09T00:40:05.692Z,4.16
2018-07-09T00:40:18.089Z,4.16
2018-07-09T00:40:30.499Z,4.16
2018-07-09T00:40:42.914Z,4.16
2018-07-09T00:40:55.342Z,4.16
2018-07-09T00:41:07.744Z,4.16
2018-07-09T00:41:20.194Z,4.16
2018-07-09T00:41:32.672Z,4.16
2018-07-09T00:41:45.071Z,3.88
2018-07-09T00:41:57.467Z,3.88
2018-07-09T00:42:09.867Z,3.88
2018-07-09T00:42:22.260Z,3.88
2018-07-09T00:42:34.661Z,3.88
2018-07-09T00:42:47.052Z,3.88
2018-07-09T00:42:59.467Z,3.88
2018-07-09T00:43:11.870Z,3.88
2018-07-09T00:43:24.279Z,3.88
2018-07-09T00:43:36.698Z,3.88
2018-07-09T00:43:49.104Z,3.88
2018-07-09T00:44:01.661Z,3.88
2018-07-09T00:44:14.066Z,3.88
2018-07-09T00:44:26.470Z,3.88
2018-07-09T00:44:38.885Z,3.88
2018-07-09T00:44:51.282Z,3.88
2018-07-09T00:45:03.678Z,3.88
2018-07-09T00:45:16.091Z,3.88
2018-07-09T00:45:28.496Z,3.88
2018-07-09T00:45:40.919Z,3.88
2018-07-09T00:45:53.325Z,3.88
2018-07-09T00:46:05.741Z,3.88
2018-07-09T00:46:18.153Z,3.88
2018-07-09T00:46:30.552Z,3.88
2018-07-09T00:46:43.066Z,3.88
2018-07-09T00:46:55.467Z,3.88
2018-07-09T00:47:08.183Z,3.88
2018-07-09T00:47:20.582Z,3.88
2018-07-09T00:47:33.000Z,3.88
2018-07-09T00:47:45.411Z,3.88
2018-07-09T00:47:57.802Z,3.88
2018-07-09T00:48:10.228Z,3.88
2018-07-09T00:48:22.647Z,3.88
2018-07-09T00:48:35.053Z,3.88
2018-07-09T00:48:47.665Z,3.88
2018-07-09T00:49:00.065Z,3.88
2018-07-09T00:49:12.448Z,3.88
2018-07-09T00:49:24.843Z,3.88
2018-07-09T00:49:37.244Z,3.88
2018-07-09T00:49:49.646Z,3.88
2018-07-09T00:50:02.044Z,3.88
2018-07-09T00:50:14.448Z,3.88
2018-07-09T00:50:26.863Z,3.88
2018-07-09T00:50:39.279Z,3.88
2018-07-09T00:50:51.754Z,3.88
2018-07-09T00:51:04.852Z,3.88
2018-07-09T00:51:17.653Z,3.88
2018-07-09T00:51:30.057Z,3.88
2018-07-09T00:51:42.457Z,3.88
2018-07-09T00:51:54.872Z,3.98
2018-07-09T00:52:07.275Z,3.98
2018-07-09T00:52:19.686Z,3.98
2018-07-09T00:52:32.085Z,3.98
2018-07-09T00:52:44.531Z,3.98
2018-07-09T00:52:56.948Z,3.98
2018-07-09T00:53:09.360Z,3.98
2018-07-09T00:53:21.810Z,3.98
2018-07-09T00:53:34.213Z,3.98
2018-07-09T00:53:46.702Z,3.98
2018-07-09T00:53:59.214Z,3.98
2018-07-09T00:54:11.630Z,3.98
2018-07-09T00:54:24.047Z,3.98
2018-07-09T00:54:36.459Z,3.98
2018-07-09T00:54:49.008Z,3.98
2018-07-09T00:55:01.402Z,3.98
2018-07-09T00:55:13.809Z,3.98
2018-07-09T00:55:26.217Z,3.98
2018-07-09T00:55:38.612Z,3.98
2018-07-09T00:55:51.110Z,3.98
2018-07-09T00:56:03.505Z,3.98
2018-07-09T00:56:15.911Z,3.98
2018-07-09T00:56:28.309Z,3.98
2018-07-09T00:56:40.703Z,3.98
2018-07-09T00:56:53.111Z,3.98
2018-07-09T00:57:05.511Z,3.98
2018-07-09T00:57:17.925Z,3.98
2018-07-09T00:57:30.317Z,3.98
2018-07-09T00:57:42.717Z,3.98
2018-07-09T00:57:55.107Z,3.98
2018-07-09T00:58:07.512Z,3.98
2018-07-09T00:58:19.930Z,3.98
2018-07-09T00:58:32.330Z,3.98
2018-07-09T00:58:44.731Z,3.98
2018-07-09T00:58:57.138Z,3.98
2018-07-09T00:59:09.545Z,3.98
2018-07-09T00:59:21.980Z,3.98
2018-07-09T00:59:34.404Z,3.98
2018-07-09T00:59:46.825Z,3.98
2018-07-09T00:59:59.214Z,3.98
2018-07-09T01:00:11.652Z,3.98
2018-07-09T01:00:24.119Z,3.98
2018-07-09T01:00:36.617Z,3.98
2018-07-09T01:00:49.033Z,3.98
2018-07-09T01:01:01.460Z,3.98
2018-07-09T01:01:13.878Z,3.98
2018-07-09T01:01:26.575Z,3.98
2018-07-09T01:01:39.104Z,3.98
2018-07-09T01:01:51.532Z,4.63
2018-07-09T01:02:03.993Z,4.63
2018-07-09T01:02:16.397Z,4.63
2018-07-09T01:02:28.831Z,4.63
2018-07-09T01:02:41.250Z,4.63
2018-07-09T01:02:53.681Z,4.63
2018-07-09T01:03:06.100Z,4.63
2018-07-09T01:03:18.572Z,4.63
2018-07-09T01:03:30.991Z,4.63
2018-07-09T01:03:43.457Z,4.63
2018-07-09T01:03:55.857Z,4.63
2018-07-09T01:04:08.284Z,4.63
2018-07-09T01:04:20.709Z,4.63
2018-07-09T01:04:33.147Z,4.63
2018-07-09T01:04:45.566Z,4.63
2018-07-09T01:04:57.976Z,4.63
2018-07-09T01:05:10.430Z,4.63
2018-07-09T01:05:22.839Z,4.63
2018-07-09T01:05:35.262Z,4.63
2018-07-09T01:05:47.680Z,4.63
2018-07-09T01:06:00.103Z,4.63
2018-07-09T01:06:12.534Z,4.63
2018-07-09T01:06:24.938Z,4.63
2018-07-09T01:06:37.416Z,4.63
2018-07-09T01:06:49.821Z,4.63
2018-07-09T01:07:02.216Z,4.63
2018-07-09T01:07:14.612Z,4.63
2018-07-09T01:07:27.012Z,4.63
2018-07-09T01:07:39.403Z,4.63
2018-07-09T01:07:51.824Z,4.63
2018-07-09T01:08:04.231Z,4.63
2018-07-09T01:08:16.660Z,4.63
2018-07-09T01:08:29.085Z,4.63
2018-07-09T01:08:41.494Z,4.63
2018-07-09T01:08:53.893Z,4.63
2018-07-09T01:09:06.304Z,4.63
2018-07-09T01:09:18.705Z,4.63
2018-07-09T01:09:31.112Z,4.63
2018-07-09T01:09:43.515Z,4.63
2018-07-09T01:09:55.915Z,4.63
2018-07-09T01:10:08.313Z,4.63
2018-07-09T01:10:20.720Z,4.63
2018-07-09T01:10:33.132Z,4.63
2018-07-09T01:10:45.566Z,4.63
2018-07-09T01:10:58.030Z,4.63
2018-07-09T01:11:11.084Z,4.63
2018-07-09T01:11:23.907Z,4.63
2018-07-09T01:11:36.326Z,4.63
2018-07-09T01:11:48.783Z,4.03
2018-07-09T01:12:01.196Z,4.03
2018-07-09T01:12:13.642Z,4.03
2018-07-09T01:12:26.040Z,4.03
2018-07-09T01:12:38.474Z,4.03
2018-07-09T01:12:50.902Z,4.03
2018-07-09T01:13:03.298Z,4.03
2018-07-09T01:13:15.703Z,4.03
2018-07-09T01:13:28.096Z,4.03
2018-07-09T01:13:40.495Z,4.03
2018-07-09T01:13:53.038Z,4.03
2018-07-09T01:14:05.443Z,4.03
2018-07-09T01:14:17.854Z,4.03
2018-07-09T01:14:30.273Z,4.03
2018-07-09T01:14:42.681Z,4.03
2018-07-09T01:14:55.077Z,4.03
2018-07-09T01:15:07.630Z,4.03
2018-07-09T01:15:20.032Z,4.03
2018-07-09T01:15:32.441Z,4.03
2018-07-09T01:15:44.830Z,4.03
2018-07-09T01:15:57.228Z,4.03
2018-07-09T01:16:09.626Z,4.03
2018-07-09T01:16:22.036Z,4.03
2018-07-09T01:16:34.492Z,4.03
2018-07-09T01:16:46.900Z,4.03
2018-07-09T01:16:59.300Z,4.03
2018-07-09T01:17:11.706Z,4.03
2018-07-09T01:17:24.104Z,4.03
2018-07-09T01:17:36.720Z,4.03
2018-07-09T01:17:49.149Z,4.03
2018-07-09T01:18:01.575Z,4.03
2018-07-09T01:18:13.982Z,4.03
2018-07-09T01:18:26.394Z,4.03
2018-07-09T01:18:38.795Z,4.03
2018-07-09T01:18:51.208Z,4.03
2018-07-09T01:19:03.645Z,4.03
2018-07-09T01:19:16.044Z,4.03
2018-07-09T01:19:28.433Z,4.03
2018-07-09T01:19:40.827Z,4.03
2018-07-09T01:19:53.228Z,4.03
2018-07-09T01:20:05.681Z,4.03
2018-07-09T01:20:18.287Z,4.03
2018-07-09T01:20:31.490Z,4.03
2018-07-09T01:20:43.898Z,4.03
2018-07-09T01:20:56.343Z,4.03
2018-07-09T01:21:08.735Z,4.03
2018-07-09T01:21:21.140Z,4.03
2018-07-09T01:21:33.537Z,4.03
2018-07-09T01:21:45.933Z,5.08
2018-07-09T01:21:58.340Z,5.08
2018-07-09T01:22:10.731Z,5.08
2018-07-09T01:22:23.141Z,5.08
2018-07-09T01:22:35.580Z,5.08
2018-07-09T01:22:47.980Z,5.08
2018-07-09T01:23:00.372Z,5.08
2018-07-09T01:23:12.770Z,5.08
2018-07-09T01:23:25.176Z,5.08
2018-07-09T01:23:37.568Z,5.08
2018-07-09T01:23:49.993Z,5.08
2018-07-09T01:24:02.392Z,5.08
2018-07-09T01:24:14.818Z,5.08
2018-07-09T01:24:27.235Z,5.08
2018-07-09T01:24:39.633Z,5.08
2018-07-09T01:24:52.036Z,5.08
2018-07-09T01:25:04.461Z,5.08
2018-07-09T01:25:16.853Z,5.08
2018-07-09T01:25:29.248Z,5.08
2018-07-09T01:25:41.652Z,5.08
2018-07-09T01:25:54.051Z,5.08
2018-07-09T01:26:06.451Z,5.08
2018-07-09T01:26:18.849Z,5.08
2018-07-09T01:26:31.242Z,5.08
2018-07-09T01:26:43.642Z,5.08
2018-07-09T01:26:56.045Z,5.08
2018-07-09T01:27:08.462Z,5.08
2018-07-09T01:27:20.865Z,5.08
2018-07-09T01:27:33.385Z,5.08
2018-07-09T01:27:45.794Z,5.08
2018-07-09T01:27:58.214Z,5.08
2018-07-09T01:28:10.613Z,5.08
2018-07-09T01:28:23.039Z,5.08
2018-07-09T01:28:35.436Z,5.08
2018-07-09T01:28:47.833Z,5.08
2018-07-09T01:29:00.246Z,5.08
2018-07-09T01:29:12.642Z,5.08
2018-07-09T01:29:25.039Z,5.08
2018-07-09T01:29:37.428Z,5.08
2018-07-09T01:29:49.827Z,5.08
2018-07-09T01:30:02.241Z,5.08
2018-07-09T01:30:14.642Z,5.08
2018-07-09T01:30:27.040Z,5.08
2018-07-09T01:30:39.438Z,5.08
2018-07-09T01:30:51.858Z,5.08
2018-07-09T01:31:04.248Z,5.08
2018-07-09T01:31:16.661Z,5.08
2018-07-09T01:31:29.069Z,5.08
2018-07-09T01:31:41.471Z,5.08
2018-07-09T01:31:53.875Z,5.38
2018-07-09T01:32:06.293Z,5.38
2018-07-09T01:32:18.691Z,5.38
2018-07-09T01:32:31.135Z,5.38
2018-07-09T01:32:43.553Z,5.38
2018-07-09T01:32:55.972Z,5.38
2018-07-09T01:33:08.368Z,5.38
2018-07-09T01:33:20.775Z,5.38
2018-07-09T01:33:33.177Z,5.38
2018-07-09T01:33:45.574Z,5.38
2018-07-09T01:33:58.011Z,5.38
2018-07-09T01:34:10.424Z,5.38
2018-07-09T01:34:22.822Z,5.38
2018-07-09T01:34:35.234Z,5.38
2018-07-09T01:34:47.687Z,5.38
2018-07-09T01:35:00.097Z,5.38
2018-07-09T01:35:12.492Z,5.38
2018-07-09T01:35:24.930Z,5.38
2018-07-09T01:35:37.335Z,5.38
2018-07-09T01:35:49.746Z,5.38
2018-07-09T01:36:02.158Z,5.38
2018-07-09T01:36:14.567Z,5.38
2018-07-09T01:36:26.973Z,5.38
2018-07-09T01:36:39.367Z,5.38
2018-07-09T01:36:51.772Z,5.38
2018-07-09T01:37:04.181Z,5.38
2018-07-09T01:37:16.576Z,5.38
2018-07-09T01:37:29.004Z,5.38
2018-07-09T01:37:41.567Z,5.38
2018-07-09T01:37:53.963Z,5.38
2018-07-09T01:38:06.369Z,5.38
2018-07-09T01:38:18.767Z,5.38
2018-07-09T01:38:31.170Z,5.38
2018-07-09T01:38:43.600Z,5.38
2018-07-09T01:38:56.009Z,5.38
2018-07-09T01:39:08.413Z,5.38
2018-07-09T01:39:20.816Z,5.38
2018-07-09T01:39:33.230Z,5.38
2018-07-09T01:39:45.632Z,5.38
2018-07-09T01:39:58.028Z,5.38
2018-07-09T01:40:10.440Z,5.38
2018-07-09T01:40:22.856Z,5.38
2018-07-09T01:40:35.256Z,5.38
2018-07-09T01:40:47.648Z,5.38
2018-07-09T01:41:00.079Z,5.38
2018-07-09T01:41:12.501Z,5.38
2018-07-09T01:41:24.903Z,5.38
2018-07-09T01:41:37.327Z,5.38
2018-07-09T01:41:49.731Z,5.65
2018-07-09T01:42:02.146Z,5.65
2018-07-09T01:42:14.558Z,5.65
2018-07-09T01:42:26.938Z,5.65
2018-07-09T01:42:39.372Z,5.65
2018-07-09T01:42:51.785Z,5.65
2018-07-09T01:43:04.202Z,5.65
2018-07-09T01:43:16.619Z,5.65
2018-07-09T01:43:29.004Z,5.65
2018-07-09T01:43:41.413Z,5.65
2018-07-09T01:43:53.866Z,5.65
2018-07-09T01:44:06.444Z,5.65
2018-07-09T01:44:18.837Z,5.65
2018-07-09T01:44:31.275Z,5.65
2018-07-09T01:44:43.675Z,5.65
2018-07-09T01:44:56.086Z,5.65
2018-07-09T01:45:08.487Z,5.65
2018-07-09T01:45:20.883Z,5.65
2018-07-09T01:45:33.280Z,5.65
2018-07-09T01:45:45.672Z,5.65
2018-07-09T01:45:58.078Z,5.65
2018-07-09T01:46:10.494Z,5.65
2018-07-09T01:46:22.895Z,5.65
2018-07-09T01:46:35.294Z,5.65
2018-07-09T01:46:47.875Z,5.65
2018-07-09T01:47:00.425Z,5.65
2018-07-09T01:47:13.104Z,5.65
2018-07-09T01:47:25.538Z,5.65
2018-07-09T01:47:37.953Z,5.65
2018-07-09T01:47:50.361Z,5.65
2018-07-09T01:48:02.761Z,5.65
2018-07-09T01:48:15.159Z,5.65
2018-07-09T01:48:27.560Z,5.65
2018-07-09T01:48:40.139Z,5.65
2018-07-09T01:48:52.523Z,5.65
2018-07-09T01:49:04.924Z,5.65
2018-07-09T01:49:17.329Z,5.65
2018-07-09T01:49:29.729Z,5.65
2018-07-09T01:49:42.148Z,5.65
2018-07-09T01:49:54.551Z,5.65
2018-07-09T01:50:06.943Z,5.65
2018-07-09T01:50:19.374Z,5.65
2018-07-09T01:50:31.825Z,5.65
2018-07-09T01:50:44.235Z,5.65
2018-07-09T01:50:56.625Z,5.65
2018-07-09T01:51:09.030Z,5.65
2018-07-09T01:51:21.424Z,5.65
2018-07-09T01:51:33.816Z,5.65
2018-07-09T01:51:46.212Z,5.65
2018-07-09T01:51:58.618Z,5.9
2018-07-09T01:52:11.013Z,5.9
2018-07-09T01:52:23.512Z,5.9
2018-07-09T01:52:35.921Z,5.9
2018-07-09T01:52:48.344Z,5.9
2018-07-09T01:53:00.736Z,5.9
2018-07-09T01:53:13.315Z,5.9
2018-07-09T01:53:25.716Z,5.9
2018-07-09T01:53:38.110Z,5.9
2018-07-09T01:53:50.517Z,5.9
2018-07-09T01:54:03.073Z,5.9
2018-07-09T01:54:15.472Z,5.9
2018-07-09T01:54:27.867Z,5.9
2018-07-09T01:54:40.263Z,5.9
2018-07-09T01:54:52.657Z,5.9
2018-07-09T01:55:05.075Z,5.9
2018-07-09T01:55:17.478Z,5.9
2018-07-09T01:55:29.863Z,5.9
2018-07-09T01:55:42.262Z,5.9
2018-07-09T01:55:54.651Z,5.9
2018-07-09T01:56:07.113Z,5.9
2018-07-09T01:56:19.510Z,5.9
2018-07-09T01:56:31.907Z,5.9
2018-07-09T01:56:44.314Z,5.9
2018-07-09T01:56:56.730Z,5.9
2018-07-09T01:57:09.136Z,5.9
2018-07-09T01:57:21.527Z,5.9
2018-07-09T01:57:33.923Z,5.9
2018-07-09T01:57:46.349Z,5.9
2018-07-09T01:57:58.761Z,5.9
2018-07-09T01:58:11.161Z,5.9
2018-07-09T01:58:23.565Z,5.9
2018-07-09T01:58:35.983Z,5.9
2018-07-09T01:58:48.382Z,5.9
2018-07-09T01:59:00.803Z,5.9
2018-07-09T01:59:13.201Z,5.9
2018-07-09T01:59:25.602Z,5.9
2018-07-09T01:59:37.994Z,5.9
2018-07-09T01:59:50.387Z,5.9
2018-07-09T02:00:02.789Z,5.9
2018-07-09T02:00:15.223Z,5.9
2018-07-09T02:00:27.646Z,5.9
2018-07-09T02:00:40.094Z,5.9
2018-07-09T02:00:52.513Z,5.9
2018-07-09T02:01:04.918Z,5.9
2018-07-09T02:01:17.307Z,5.9
2018-07-09T02:01:29.794Z,5.9
2018-07-09T02:01:42.376Z,5.9
2018-07-09T02:01:54.772Z,5.55
2018-07-09T02:02:07.179Z,5.55
2018-07-09T02:02:19.621Z,5.55
2018-07-09T02:02:32.041Z,5.55
2018-07-09T02:02:44.444Z,5.55
2018-07-09T02:02:56.851Z,5.55
2018-07-09T02:03:09.254Z,5.55
2018-07-09T02:03:21.669Z,5.55
2018-07-09T02:03:34.071Z,5.55
2018-07-09T02:03:46.485Z,5.55
2018-07-09T02:03:58.917Z,5.55
2018-07-09T02:04:11.327Z,5.55
2018-07-09T02:04:23.757Z,5.55
2018-07-09T02:04:36.159Z,5.55
2018-07-09T02:04:48.574Z,5.55
2018-07-09T02:05:00.980Z,5.55
2018-07-09T02:05:13.385Z,5.55
2018-07-09T02:05:25.811Z,5.55
2018-07-09T02:05:38.216Z,5.55
2018-07-09T02:05:50.632Z,5.55
2018-07-09T02:06:03.044Z,5.55
2018-07-09T02:06:15.476Z,5.55
2018-07-09T02:06:27.886Z,5.55
2018-07-09T02:06:40.367Z,5.55
2018-07-09T02:06:52.772Z,5.55
2018-07-09T02:07:05.169Z,5.55
2018-07-09T02:07:17.577Z,5.55
2018-07-09T02:07:29.970Z,5.55
2018-07-09T02:07:42.393Z,5.55
2018-07-09T02:07:54.785Z,5.55
2018-07-09T02:08:07.174Z,5.55
2018-07-09T02:08:19.565Z,5.55
2018-07-09T02:08:31.960Z,5.55
2018-07-09T02:08:44.357Z,5.55
2018-07-09T02:08:56.755Z,5.55
2018-07-09T02:09:09.160Z,5.55
2018-07-09T02:09:21.558Z,5.55
2018-07-09T02:09:33.977Z,5.55
2018-07-09T02:09:46.377Z,5.55
2018-07-09T02:09:58.802Z,5.55
2018-07-09T02:10:11.219Z,5.55
2018-07-09T02:10:23.614Z,5.55
2018-07-09T02:10:36.023Z,5.55
2018-07-09T02:10:48.431Z,5.55
2018-07-09T02:11:00.897Z,5.55
2018-07-09T02:11:13.286Z,5.55
2018-07-09T02:11:25.689Z,5.55
2018-07-09T02:11:38.096Z,5.55
2018-07-09T02:11:50.532Z,5.71
2018-07-09T02:12:02.938Z,5.71
2018-07-09T02:12:15.347Z,5.71
2018-07-09T02:12:27.756Z,5.71
2018-07-09T02:12:40.151Z,5.71
2018-07-09T02:12:52.545Z,5.71
2018-07-09T02:13:04.954Z,5.71
2018-07-09T02:13:17.364Z,5.71
2018-07-09T02:13:29.772Z,5.71
2018-07-09T02:13:42.169Z,5.71
2018-07-09T02:13:54.567Z,5.71
2018-07-09T02:14:06.955Z,5.71
2018-07-09T02:14:19.352Z,5.71
2018-07-09T02:14:31.770Z,5.71
2018-07-09T02:14:44.174Z,5.71
2018-07-09T02:14:56.580Z,5.71
2018-07-09T02:15:08.988Z,5.71
2018-07-09T02:15:21.559Z,5.71
2018-07-09T02:15:34.111Z,5.71
2018-07-09T02:15:46.563Z,5.71
2018-07-09T02:15:58.984Z,5.71
2018-07-09T02:16:11.444Z,5.71
2018-07-09T02:16:23.840Z,5.71
2018-07-09T02:16:36.415Z,5.71
2018-07-09T02:16:48.817Z,5.71
2018-07-09T02:17:01.244Z,5.71
2018-07-09T02:17:13.646Z,5.71
2018-07-09T02:17:26.043Z,5.71
2018-07-09T02:17:38.441Z,5.71
2018-07-09T02:17:50.866Z,5.71
2018-07-09T02:18:03.261Z,5.71
2018-07-09T02:18:15.853Z,5.71
2018-07-09T02:18:28.241Z,5.71
2018-07-09T02:18:40.652Z,5.71
2018-07-09T02:18:53.058Z,5.71
2018-07-09T02:19:05.512Z,5.71
2018-07-09T02:19:17.916Z,5.71
2018-07-09T02:19:30.321Z,5.71
2018-07-09T02:19:42.718Z,5.71
2018-07-09T02:19:55.119Z,5.71
2018-07-09T02:20:07.605Z,5.71
2018-07-09T02:20:20.005Z,5.71
2018-07-09T02:20:32.907Z,5.71
2018-07-09T02:20:45.908Z,5.71
2018-07-09T02:20:58.320Z,5.71
2018-07-09T02:21:10.725Z,5.71
2018-07-09T02:21:23.170Z,5.71
2018-07-09T02:21:35.600Z,5.71
2018-07-09T02:21:48.001Z,5.71
2018-07-09T02:22:00.408Z,5.61
2018-07-09T02:22:12.802Z,5.61
2018-07-09T02:22:25.221Z,5.61
2018-07-09T02:22:37.633Z,5.61
2018-07-09T02:22:50.029Z,5.61
2018-07-09T02:23:02.413Z,5.61
2018-07-09T02:23:14.842Z,5.61
2018-07-09T02:23:27.283Z,5.61
2018-07-09T02:23:39.684Z,5.61
2018-07-09T02:23:52.095Z,5.61
2018-07-09T02:24:04.540Z,5.61
2018-07-09T02:24:16.947Z,5.61
2018-07-09T02:24:29.338Z,5.61
2018-07-09T02:24:41.742Z,5.61
2018-07-09T02:24:54.150Z,5.61
2018-07-09T02:25:06.557Z,5.61
2018-07-09T02:25:18.956Z,5.61
2018-07-09T02:25:31.357Z,5.61
2018-07-09T02:25:43.768Z,5.61
2018-07-09T02:25:56.175Z,5.61
2018-07-09T02:26:08.579Z,5.61
2018-07-09T02:26:20.974Z,5.61
2018-07-09T02:26:33.369Z,5.61
2018-07-09T02:26:45.776Z,5.61
2018-07-09T02:26:58.174Z,5.61
2018-07-09T02:27:10.606Z,5.61
2018-07-09T02:27:22.995Z,5.61
2018-07-09T02:27:35.394Z,5.61
2018-07-09T02:27:47.783Z,5.61
2018-07-09T02:28:00.193Z,5.61
2018-07-09T02:28:12.637Z,5.61
2018-07-09T02:28:25.095Z,5.61
2018-07-09T02:28:37.508Z,5.61
2018-07-09T02:28:49.911Z,5.61
2018-07-09T02:29:02.329Z,5.61
2018-07-09T02:29:14.730Z,5.61
2018-07-09T02:29:27.126Z,5.61
2018-07-09T02:29:39.573Z,5.61
2018-07-09T02:29:51.996Z,5.61
2018-07-09T02:30:04.433Z,5.61
2018-07-09T02:30:16.932Z,5.61
2018-07-09T02:30:29.356Z,5.61
2018-07-09T02:30:41.775Z,5.61
2018-07-09T02:30:54.205Z,5.61
2018-07-09T02:31:06.626Z,5.61
2018-07-09T02:31:19.044Z,5.61
2018-07-09T02:31:31.454Z,5.61
2018-07-09T02:31:43.872Z,5.61
2018-07-09T02:31:56.321Z,5.5
2018-07-09T02:32:08.772Z,5.5
2018-07-09T02:32:21.177Z,5.5
2018-07-09T02:32:33.568Z,5.5
2018-07-09T02:32:45.994Z,5.5
2018-07-09T02:32:58.411Z,5.5
2018-07-09T02:33:10.865Z,5.5
2018-07-09T02:33:23.349Z,5.5
2018-07-09T02:33:35.764Z,5.5
2018-07-09T02:33:48.176Z,5.5
2018-07-09T02:34:00.581Z,5.5
2018-07-09T02:34:13.001Z,5.5
2018-07-09T02:34:25.450Z,5.5
2018-07-09T02:34:37.876Z,5.5
2018-07-09T02:34:50.281Z,5.5
2018-07-09T02:35:02.708Z,5.5
2018-07-09T02:35:15.128Z,5.5
2018-07-09T02:35:27.552Z,5.5
2018-07-09T02:35:39.979Z,5.5
2018-07-09T02:35:52.417Z,5.5
2018-07-09T02:36:04.914Z,5.5
2018-07-09T02:36:17.317Z,5.5
2018-07-09T02:36:29.771Z,5.5
2018-07-09T02:36:42.265Z,5.5
2018-07-09T02:36:54.694Z,5.5
2018-07-09T02:37:07.122Z,5.5
2018-07-09T02:37:19.564Z,5.5
2018-07-09T02:37:31.988Z,5.5
2018-07-09T02:37:44.508Z,5.5
2018-07-09T02:37:56.942Z,5.5
2018-07-09T02:38:09.436Z,5.5
2018-07-09T02:38:21.891Z,5.5
2018-07-09T02:38:34.358Z,5.5
2018-07-09T02:38:46.815Z,5.5
2018-07-09T02:38:59.227Z,5.5
2018-07-09T02:39:11.681Z,5.5
2018-07-09T02:39:24.125Z,5.5
2018-07-09T02:39:36.565Z,5.5
2018-07-09T02:39:49.013Z,5.5
2018-07-09T02:40:01.440Z,5.5
2018-07-09T02:40:13.854Z,5.5
2018-07-09T02:40:26.273Z,5.5
2018-07-09T02:40:38.699Z,5.5
2018-07-09T02:40:51.121Z,5.5
2018-07-09T02:41:03.560Z,5.5
2018-07-09T02:41:15.979Z,5.5
2018-07-09T02:41:28.395Z,5.5
2018-07-09T02:41:40.802Z,5.5
2018-07-09T02:41:53.234Z,5.35
2018-07-09T02:42:05.647Z,5.35
2018-07-09T02:42:18.057Z,5.35
2018-07-09T02:42:30.470Z,5.35
2018-07-09T02:42:42.909Z,5.35
2018-07-09T02:42:55.318Z,5.35
2018-07-09T02:43:07.744Z,5.35
2018-07-09T02:43:20.223Z,5.35
2018-07-09T02:43:32.636Z,5.35
2018-07-09T02:43:45.067Z,5.35
2018-07-09T02:43:57.696Z,5.35
2018-07-09T02:44:10.119Z,5.35
2018-07-09T02:44:22.524Z,5.35
2018-07-09T02:44:34.955Z,5.35
2018-07-09T02:44:47.370Z,5.35
2018-07-09T02:44:59.810Z,5.35
2018-07-09T02:45:12.236Z,5.35
2018-07-09T02:45:24.646Z,5.35
2018-07-09T02:45:37.109Z,5.35
2018-07-09T02:45:49.541Z,5.35
2018-07-09T02:46:01.954Z,5.35
2018-07-09T02:46:14.374Z,5.35
2018-07-09T02:46:26.804Z,5.35